createdAt,value
2023-03-18T00:00:35.211Z,15.80
2023-03-18T00:03:03.044Z,16.27
2023-03-18T00:05:31.112Z,15.40
2023-03-18T00:07:59.151Z,16.63
2023-03-18T00:10:26.519Z,17.15
2023-03-18T00:12:54.101Z,16.95
2023-03-18T00:15:21.632Z,16.63
2023-03-18T00:17:49.338Z,16.50
2023-03-18T00:20:18.533Z,16.80
2023-03-18T00:22:46.840Z,14.95
2023-03-18T00:25:15.525Z,16.23
2023-03-18T00:27:43.193Z,17.08
2023-03-18T00:30:13.292Z,16.50
2023-03-18T00:32:41.697Z,16.75
2023-03-18T00:35:09.631Z,18.02
2023-03-18T00:37:37.132Z,16.83
2023-03-18T00:40:10.031Z,17.05
2023-03-18T00:42:47.364Z,15.85
2023-03-18T00:45:17.125Z,16.52
2023-03-18T00:47:44.944Z,16.35
2023-03-18T00:50:12.718Z,16.90
2023-03-18T00:52:40.274Z,16.70
2023-03-18T00:55:08.422Z,17.40
2023-03-18T00:57:36.164Z,16.10
2023-03-18T01:00:07.038Z,16.75
2023-03-18T01:02:34.514Z,17.08
2023-03-18T01:05:02.654Z,17.55
2023-03-18T01:07:30.150Z,17.50
2023-03-18T01:09:57.702Z,15.25
2023-03-18T01:12:25.733Z,16.10
2023-03-18T01:14:53.796Z,14.23
2023-03-18T01:17:21.969Z,14.43
2023-03-18T01:19:49.916Z,13.77
2023-03-18T01:22:17.675Z,14.23
2023-03-18T01:24:49.538Z,13.25
2023-03-18T01:27:21.535Z,13.30
2023-03-18T01:29:49.289Z,13.95
2023-03-18T01:32:22.085Z,14.25
2023-03-18T01:34:49.805Z,14.32
2023-03-18T01:37:17.239Z,13.73
2023-03-18T01:39:49.333Z,10.70
2023-03-18T01:42:22.757Z,13.52
2023-03-18T01:44:50.808Z,13.75
2023-03-18T01:47:18.740Z,13.60
2023-03-18T01:49:53.543Z,14.20
2023-03-18T01:52:27.180Z,14.25
2023-03-18T01:55:17.226Z,14.82
2023-03-18T01:57:45.466Z,14.77
2023-03-18T02:00:16.432Z,14.57
2023-03-18T02:02:47.076Z,14.60
2023-03-18T02:05:18.998Z,13.52
2023-03-18T02:07:46.995Z,14.43
2023-03-18T02:10:22.441Z,14.40
2023-03-18T02:12:56.269Z,15.45
2023-03-18T02:15:31.361Z,14.35
2023-03-18T02:18:13.201Z,13.98
2023-03-18T02:20:49.725Z,14.27
2023-03-18T02:23:23.738Z,14.70
2023-03-18T02:26:05.063Z,14.70
2023-03-18T02:28:35.817Z,14.13
2023-03-18T02:31:09.552Z,13.63
2023-03-18T02:33:42.726Z,14.27
2023-03-18T02:36:21.736Z,14.68
2023-03-18T02:38:49.858Z,13.38
2023-03-18T02:41:33.796Z,13.82
2023-03-18T02:44:01.706Z,14.50
2023-03-18T02:46:55.833Z,14.48
2023-03-18T02:49:26.006Z,13.57
2023-03-18T02:52:03.783Z,13.18
2023-03-18T02:54:31.968Z,14.63
2023-03-18T02:57:00.492Z,15.27
2023-03-18T02:59:28.114Z,16.95
2023-03-18T03:01:57.647Z,14.18
2023-03-18T03:04:26.298Z,15.20
2023-03-18T03:06:55.257Z,14.57
2023-03-18T03:09:35.322Z,14.75
2023-03-18T03:12:03.102Z,14.88
2023-03-18T03:14:31.163Z,12.45
2023-03-18T03:17:01.151Z,14.13
2023-03-18T03:19:28.943Z,13.55
2023-03-18T03:21:57.162Z,14.20
2023-03-18T03:24:25.932Z,14.38
2023-03-18T03:26:53.526Z,13.65
2023-03-18T03:29:21.022Z,14.00
2023-03-18T03:31:50.194Z,13.63
2023-03-18T03:34:19.555Z,13.45
2023-03-18T03:36:47.049Z,14.70
2023-03-18T03:39:14.812Z,14.73
2023-03-18T03:41:42.216Z,14.15
2023-03-18T03:44:09.648Z,13.60
2023-03-18T03:46:37.549Z,13.70
2023-03-18T03:49:05.502Z,14.45
2023-03-18T03:51:32.907Z,15.43
2023-03-18T03:54:00.401Z,16.25
2023-03-18T03:56:28.337Z,14.60
2023-03-18T03:58:55.901Z,14.40
2023-03-18T04:01:27.284Z,14.25
2023-03-18T04:03:56.812Z,14.70
2023-03-18T04:06:24.714Z,15.50
2023-03-18T04:08:59.721Z,15.13
2023-03-18T04:11:28.329Z,14.70
2023-03-18T04:13:57.145Z,14.30
2023-03-18T04:16:24.703Z,14.65
2023-03-18T04:18:52.351Z,15.43
2023-03-18T04:21:23.336Z,14.40
2023-03-18T04:23:54.347Z,14.27
2023-03-18T04:26:22.906Z,15.00
2023-03-18T04:28:52.067Z,15.13
2023-03-18T04:31:19.552Z,15.05
2023-03-18T04:33:47.703Z,15.13
2023-03-18T04:36:15.565Z,15.05
2023-03-18T04:38:43.037Z,14.85
2023-03-18T04:41:11.096Z,13.48
2023-03-18T04:43:38.919Z,14.73
2023-03-18T04:46:07.709Z,15.57
2023-03-18T04:48:36.215Z,14.00
2023-03-18T04:51:05.988Z,16.77
2023-03-18T04:53:35.485Z,15.95
2023-03-18T04:56:04.322Z,15.50
2023-03-18T04:58:40.352Z,13.82
2023-03-18T05:01:13.871Z,14.65
2023-03-18T05:03:42.187Z,15.80
2023-03-18T05:06:21.804Z,15.00
2023-03-18T05:08:58.949Z,18.77
2023-03-18T05:11:29.682Z,15.10
2023-03-18T05:14:00.823Z,15.43
2023-03-18T05:16:31.157Z,14.10
2023-03-18T05:19:01.161Z,14.15
2023-03-18T05:21:30.537Z,14.82
2023-03-18T05:23:58.635Z,13.88
2023-03-18T05:26:27.251Z,14.88
2023-03-18T05:28:55.239Z,14.75
2023-03-18T05:31:33.685Z,13.82
2023-03-18T05:34:02.160Z,14.93
2023-03-18T05:36:34.252Z,13.52
2023-03-18T05:39:05.952Z,14.75
2023-03-18T05:41:35.928Z,14.65
2023-03-18T05:44:06.093Z,14.27
2023-03-18T05:46:36.752Z,14.73
2023-03-18T05:49:34.745Z,14.50
2023-03-18T05:52:17.347Z,14.52
2023-03-18T05:54:47.027Z,15.68
2023-03-18T05:57:18.252Z,14.57
2023-03-18T05:59:48.408Z,13.95
2023-03-18T06:02:16.907Z,13.95
2023-03-18T06:04:46.131Z,13.50
2023-03-18T06:07:15.261Z,13.55
2023-03-18T06:09:43.312Z,15.18
2023-03-18T06:12:11.521Z,14.30
2023-03-18T06:14:39.703Z,14.10
2023-03-18T06:17:08.398Z,15.18
2023-03-18T06:19:35.822Z,14.70
2023-03-18T06:22:03.271Z,15.20
2023-03-18T06:24:30.640Z,15.13
2023-03-18T06:26:58.755Z,15.75
2023-03-18T06:29:26.711Z,15.82
2023-03-18T06:31:57.914Z,11.48
2023-03-18T06:34:27.259Z,16.42
2023-03-18T06:36:56.952Z,15.65
2023-03-18T06:39:24.804Z,15.57
2023-03-18T06:41:53.092Z,15.10
2023-03-18T06:44:50.341Z,14.48
2023-03-18T06:47:22.784Z,14.20
2023-03-18T06:49:54.569Z,13.68
2023-03-18T06:52:29.320Z,14.30
2023-03-18T06:55:02.887Z,13.73
2023-03-18T06:57:30.464Z,13.73
2023-03-18T06:59:58.422Z,13.70
2023-03-18T07:02:27.484Z,13.82
2023-03-18T07:04:57.545Z,10.15
2023-03-18T07:07:25.170Z,13.45
2023-03-18T07:09:53.773Z,12.38
2023-03-18T07:12:21.950Z,12.02
2023-03-18T07:14:49.406Z,12.70
2023-03-18T07:17:19.899Z,13.73
2023-03-18T07:19:47.660Z,13.93
2023-03-18T07:22:18.344Z,12.85
2023-03-18T07:24:46.749Z,11.85
2023-03-18T07:27:14.623Z,13.07
2023-03-18T07:29:42.916Z,12.82
2023-03-18T07:32:10.800Z,12.77
2023-03-18T07:34:38.270Z,12.52
2023-03-18T07:37:05.746Z,12.23
2023-03-18T07:39:33.675Z,11.88
2023-03-18T07:42:02.136Z,12.55
2023-03-18T07:44:31.461Z,13.38
2023-03-18T07:46:59.568Z,12.55
2023-03-18T07:49:27.283Z,13.32
2023-03-18T07:51:54.673Z,13.27
2023-03-18T07:54:23.994Z,11.48
2023-03-18T07:56:53.486Z,14.05
2023-03-18T07:59:20.950Z,12.38
2023-03-18T08:01:49.069Z,12.50
2023-03-18T08:04:19.198Z,12.68
2023-03-18T08:06:50.175Z,11.40
2023-03-18T08:09:19.444Z,12.38
2023-03-18T08:11:48.458Z,12.27
2023-03-18T08:14:18.297Z,12.27
2023-03-18T08:16:47.382Z,12.02
2023-03-18T08:19:17.331Z,12.57
2023-03-18T08:21:46.756Z,12.63
2023-03-18T08:24:15.192Z,13.00
2023-03-18T08:26:44.256Z,11.93
2023-03-18T08:29:13.794Z,11.52
2023-03-18T08:31:43.243Z,12.13
2023-03-18T08:34:12.756Z,11.32
2023-03-18T08:36:43.879Z,12.18
2023-03-18T08:39:12.878Z,12.55
2023-03-18T08:41:44.810Z,12.18
2023-03-18T08:44:15.777Z,12.40
2023-03-18T08:46:44.613Z,11.98
2023-03-18T08:49:15.895Z,12.75
2023-03-18T08:51:46.400Z,11.82
2023-03-18T08:54:15.410Z,12.05
2023-03-18T08:56:45.350Z,12.40
2023-03-18T08:59:14.354Z,12.43
2023-03-18T09:01:43.220Z,12.40
2023-03-18T09:04:12.215Z,13.88
2023-03-18T09:06:42.411Z,14.30
2023-03-18T09:09:12.130Z,12.13
2023-03-18T09:11:42.120Z,11.77
2023-03-18T09:14:12.043Z,12.50
2023-03-18T09:16:41.386Z,12.02
2023-03-18T09:19:10.944Z,12.65
2023-03-18T09:21:40.218Z,11.50
2023-03-18T09:24:09.870Z,12.15
2023-03-18T09:26:40.048Z,13.13
2023-03-18T09:29:10.754Z,12.38
2023-03-18T09:31:40.231Z,12.43
2023-03-18T09:34:08.858Z,12.48
2023-03-18T09:36:39.141Z,12.27
2023-03-18T09:39:09.591Z,12.77
2023-03-18T09:41:51.502Z,12.70
2023-03-18T09:44:27.322Z,13.73
2023-03-18T09:47:05.517Z,13.30
2023-03-18T09:49:40.613Z,12.93
2023-03-18T09:52:18.570Z,12.45
2023-03-18T09:55:10.302Z,13.40
2023-03-18T09:57:44.461Z,13.70
2023-03-18T10:00:35.156Z,12.82
2023-03-18T10:03:19.358Z,13.07
2023-03-18T10:05:57.107Z,14.02
2023-03-18T10:08:48.045Z,13.63
2023-03-18T10:11:37.273Z,13.95
2023-03-18T10:14:27.542Z,15.38
2023-03-18T10:17:17.816Z,14.98
2023-03-18T10:19:58.056Z,13.68
2023-03-18T10:23:05.154Z,14.25
2023-03-18T10:25:49.525Z,13.68
2023-03-18T10:28:43.636Z,14.77
2023-03-18T10:31:36.627Z,14.98
2023-03-18T10:34:14.862Z,15.05
2023-03-18T10:37:29.036Z,14.13
2023-03-18T10:40:00.357Z,14.90
2023-03-18T10:42:33.392Z,14.13
2023-03-18T10:45:25.279Z,14.57
2023-03-18T10:48:15.320Z,14.05
2023-03-18T10:51:06.409Z,14.55
2023-03-18T10:53:40.046Z,14.27
2023-03-18T10:56:14.150Z,14.43
2023-03-18T10:58:43.155Z,15.55
2023-03-18T11:01:17.335Z,14.23
2023-03-18T11:03:55.915Z,14.50
2023-03-18T11:06:34.226Z,17.35
2023-03-18T11:09:13.911Z,15.05
2023-03-18T11:11:50.911Z,14.57
2023-03-18T11:14:24.733Z,15.65
2023-03-18T11:17:20.764Z,15.45
2023-03-18T11:20:02.776Z,15.75
2023-03-18T11:22:33.939Z,14.88
2023-03-18T11:25:25.530Z,18.23
2023-03-18T11:28:03.851Z,16.55
2023-03-18T11:30:56.862Z,15.63
2023-03-18T11:33:37.505Z,16.65
2023-03-18T11:36:08.966Z,16.80
2023-03-18T11:38:39.421Z,16.52
2023-03-18T11:41:09.689Z,18.95
2023-03-18T11:43:39.614Z,16.70
2023-03-18T11:46:12.257Z,19.02
2023-03-18T11:48:44.206Z,16.92
2023-03-18T11:51:28.380Z,16.90
2023-03-18T11:54:12.100Z,15.95
2023-03-18T11:56:53.093Z,15.85
2023-03-18T11:59:58.312Z,16.73
2023-03-18T12:02:36.236Z,17.55
2023-03-18T12:05:18.980Z,19.55
2023-03-18T12:07:50.774Z,17.30
2023-03-18T12:10:30.224Z,18.98
2023-03-18T12:13:27.781Z,21.50
2023-03-18T12:16:08.784Z,18.48
2023-03-18T12:19:16.781Z,18.55
2023-03-18T12:22:07.895Z,17.73
2023-03-18T12:24:39.654Z,18.65
2023-03-18T12:27:41.843Z,19.35
2023-03-18T12:30:44.078Z,21.25
2023-03-18T12:33:18.500Z,19.17
2023-03-18T12:36:32.440Z,19.67
2023-03-18T12:39:20.366Z,17.88
2023-03-18T12:42:02.656Z,18.52
2023-03-18T12:44:47.299Z,17.92
2023-03-18T12:47:32.251Z,17.52
2023-03-18T12:50:05.108Z,16.67
2023-03-18T12:52:46.153Z,19.35
2023-03-18T12:55:50.104Z,17.65
2023-03-18T12:58:44.153Z,18.02
2023-03-18T13:01:32.983Z,19.10
2023-03-18T13:04:12.179Z,18.50
2023-03-18T13:07:19.897Z,19.17
2023-03-18T13:10:03.819Z,19.95
2023-03-18T13:12:37.813Z,18.73
2023-03-18T13:15:25.751Z,19.65
2023-03-18T13:17:59.721Z,19.80
2023-03-18T13:20:34.305Z,19.20
2023-03-18T13:23:17.629Z,19.58
2023-03-18T13:26:13.839Z,20.88
2023-03-18T13:29:07.418Z,20.10
2023-03-18T13:32:23.706Z,19.63
2023-03-18T13:35:23.660Z,20.25
2023-03-18T13:38:26.227Z,19.17
2023-03-18T13:41:03.323Z,20.52
2023-03-18T13:43:34.281Z,19.85
2023-03-18T13:46:04.549Z,19.55
2023-03-18T13:48:36.175Z,19.70
2023-03-18T13:51:40.651Z,21.67
2023-03-18T13:54:19.102Z,20.40
2023-03-18T13:56:56.054Z,19.77
2023-03-18T13:59:34.010Z,19.98
2023-03-18T14:02:26.966Z,20.10
2023-03-18T14:04:59.876Z,19.50
2023-03-18T14:07:29.894Z,20.33
2023-03-18T14:10:18.266Z,20.27
2023-03-18T14:12:48.784Z,19.85
2023-03-18T14:15:37.200Z,19.65
2023-03-18T14:18:28.306Z,19.63
2023-03-18T14:21:02.548Z,21.45
2023-03-18T14:23:43.583Z,21.08
2023-03-18T14:26:32.533Z,19.10
2023-03-18T14:29:24.681Z,19.30
2023-03-18T14:32:00.459Z,21.20
2023-03-18T14:34:35.568Z,19.55
2023-03-18T14:37:20.594Z,19.92
2023-03-18T14:39:53.531Z,20.30
2023-03-18T14:42:32.243Z,20.70
2023-03-18T14:45:14.545Z,20.48
2023-03-18T14:47:55.126Z,19.77
2023-03-18T14:50:52.993Z,19.52
2023-03-18T14:53:41.433Z,19.65
2023-03-18T14:56:23.063Z,19.00
2023-03-18T14:58:54.196Z,20.40
2023-03-18T15:01:36.901Z,14.93
2023-03-18T15:04:11.881Z,19.95
2023-03-18T15:06:43.019Z,19.23
2023-03-18T15:09:29.796Z,18.08
2023-03-18T15:12:00.024Z,19.17
2023-03-18T15:14:31.877Z,18.48
2023-03-18T15:17:01.816Z,19.95
2023-03-18T15:19:30.652Z,19.20
2023-03-18T15:22:04.623Z,19.60
2023-03-18T15:24:32.957Z,19.27
2023-03-18T15:27:07.091Z,19.55
2023-03-18T15:29:38.626Z,19.42
2023-03-18T15:32:28.457Z,20.60
2023-03-18T15:35:08.127Z,19.23
2023-03-18T15:37:42.640Z,19.00
2023-03-18T15:40:32.858Z,20.67
2023-03-18T15:43:28.400Z,19.80
2023-03-18T15:46:04.898Z,19.88
2023-03-18T15:48:39.313Z,19.83
2023-03-18T15:51:22.486Z,20.60
2023-03-18T15:53:54.077Z,19.25
2023-03-18T15:56:29.535Z,19.05
2023-03-18T15:59:04.962Z,19.63
2023-03-18T16:01:37.855Z,18.83
2023-03-18T16:04:12.303Z,19.88
2023-03-18T16:06:40.391Z,20.15
2023-03-18T16:09:18.404Z,19.83
2023-03-18T16:11:58.830Z,19.88
2023-03-18T16:14:33.284Z,19.08
2023-03-18T16:17:00.723Z,19.67
2023-03-18T16:19:28.993Z,20.15
2023-03-18T16:21:58.555Z,19.42
2023-03-18T16:24:26.135Z,20.35
2023-03-18T16:26:54.946Z,20.77
2023-03-18T16:29:31.819Z,19.42
2023-03-18T16:32:00.463Z,21.35
2023-03-18T16:34:27.972Z,22.45
2023-03-18T16:36:56.146Z,22.33
2023-03-18T16:39:34.212Z,24.48
2023-03-18T16:42:04.401Z,23.80
2023-03-18T16:44:34.469Z,22.60
2023-03-18T16:47:02.450Z,24.17
2023-03-18T16:49:33.131Z,26.77
2023-03-18T16:52:01.947Z,24.70
2023-03-18T16:54:33.069Z,22.77
2023-03-18T16:57:03.113Z,22.48
2023-03-18T16:59:35.202Z,21.60
2023-03-18T17:02:04.157Z,23.08
2023-03-18T17:04:34.307Z,22.20
2023-03-18T17:07:04.905Z,21.80
2023-03-18T17:09:32.412Z,22.60
2023-03-18T17:12:04.566Z,23.08
2023-03-18T17:14:38.689Z,21.33
2023-03-18T17:17:11.532Z,22.17
2023-03-18T17:19:40.074Z,23.00
2023-03-18T17:22:24.245Z,24.45
2023-03-18T17:24:51.825Z,22.08
2023-03-18T17:27:25.663Z,22.25
2023-03-18T17:29:53.800Z,22.25
2023-03-18T17:32:22.395Z,35.67
2023-03-18T17:34:51.778Z,23.95
2023-03-18T17:37:20.779Z,23.67
2023-03-18T17:39:48.290Z,22.42
2023-03-18T17:42:31.424Z,21.17
2023-03-18T17:45:16.769Z,21.48
2023-03-18T17:47:44.356Z,21.88
2023-03-18T17:50:19.524Z,23.08
2023-03-18T17:52:49.748Z,22.42
2023-03-18T17:55:22.363Z,22.30
2023-03-18T17:57:50.804Z,23.05
2023-03-18T18:00:27.487Z,30.52
2023-03-18T18:02:55.021Z,39.45
2023-03-18T18:05:23.489Z,26.52
2023-03-18T18:07:51.566Z,25.15
2023-03-18T18:10:20.493Z,24.65
2023-03-18T18:12:49.845Z,28.15
2023-03-18T18:15:27.685Z,34.70
2023-03-18T18:17:55.796Z,30.83
2023-03-18T18:20:24.145Z,31.20
2023-03-18T18:22:54.999Z,25.75
2023-03-18T18:25:26.854Z,25.92
2023-03-18T18:27:56.261Z,25.52
2023-03-18T18:30:26.214Z,25.63
2023-03-18T18:32:55.215Z,29.17
2023-03-18T18:35:26.145Z,35.47
2023-03-18T18:37:55.159Z,41.25
2023-03-18T18:40:25.014Z,53.75
2023-03-18T18:42:56.228Z,48.20
2023-03-18T18:45:25.210Z,25.20
2023-03-18T18:47:56.907Z,25.60
2023-03-18T18:50:39.129Z,15.77
2023-03-18T18:53:25.070Z,11.50
2023-03-18T18:55:56.737Z,9.70
2023-03-18T18:58:35.055Z,9.52
2023-03-18T19:01:03.302Z,10.23
2023-03-18T19:03:31.347Z,8.45
2023-03-18T19:06:01.052Z,9.90
2023-03-18T19:08:36.269Z,8.93
2023-03-18T19:11:07.782Z,11.00
2023-03-18T19:13:37.708Z,8.82
2023-03-18T19:16:16.990Z,11.88
2023-03-18T19:18:44.477Z,9.98
2023-03-18T19:21:11.952Z,9.00
2023-03-18T19:23:39.446Z,10.38
2023-03-18T19:26:07.473Z,8.52
2023-03-18T19:28:57.546Z,9.20
2023-03-18T19:31:30.491Z,10.52
2023-03-18T19:36:28.155Z,9.35
2023-03-18T19:38:58.288Z,8.98
2023-03-18T19:41:26.823Z,12.10
2023-03-18T19:43:58.627Z,17.48
2023-03-18T19:46:39.076Z,11.60
2023-03-18T19:49:16.984Z,8.13
2023-03-18T19:51:44.620Z,9.55
2023-03-18T19:54:23.728Z,11.95
2023-03-18T19:56:53.130Z,9.65
2023-03-18T19:59:23.764Z,8.20
2023-03-18T20:01:51.659Z,9.52
2023-03-18T20:04:19.839Z,9.73
2023-03-18T20:06:51.013Z,9.63
2023-03-18T20:09:18.384Z,9.90
2023-03-18T20:11:46.955Z,10.55
2023-03-18T20:14:20.434Z,10.23
2023-03-18T20:16:49.313Z,10.65
2023-03-18T20:19:17.390Z,10.13
2023-03-18T20:21:48.295Z,9.43
2023-03-18T20:24:18.605Z,9.50
2023-03-18T20:26:45.983Z,19.52
2023-03-18T20:29:19.010Z,9.13
2023-03-18T20:31:46.831Z,8.77
2023-03-18T20:34:14.429Z,9.63
2023-03-18T20:36:42.467Z,10.25
2023-03-18T20:39:19.845Z,10.27
2023-03-18T20:41:48.240Z,12.25
2023-03-18T20:44:15.748Z,10.15
2023-03-18T20:46:44.901Z,11.23
2023-03-18T20:49:12.847Z,10.98
2023-03-18T20:51:41.316Z,9.68
2023-03-18T20:54:29.969Z,11.15
2023-03-18T20:56:58.099Z,11.82
2023-03-18T20:59:25.635Z,10.13
2023-03-18T21:01:53.117Z,9.68
2023-03-18T21:04:20.574Z,11.05
2023-03-18T21:06:48.645Z,11.40
2023-03-18T21:09:16.464Z,11.73
2023-03-18T21:11:43.945Z,11.23
2023-03-18T21:14:15.457Z,10.07
2023-03-18T21:16:42.991Z,10.68
2023-03-18T21:19:11.209Z,10.65
2023-03-18T21:21:39.440Z,12.82
2023-03-18T21:24:27.911Z,11.73
2023-03-18T21:27:04.291Z,10.38
2023-03-18T21:29:33.087Z,11.13
2023-03-18T21:32:01.729Z,11.30
2023-03-18T21:34:29.198Z,14.82
2023-03-18T21:36:57.347Z,11.38
2023-03-18T21:39:24.804Z,11.93
2023-03-18T21:41:52.283Z,10.95
2023-03-18T21:44:19.688Z,12.60
2023-03-18T21:46:48.779Z,12.07
2023-03-18T21:49:16.221Z,11.52
2023-03-18T21:51:43.673Z,12.60
2023-03-18T21:54:18.841Z,13.70
2023-03-18T21:56:46.312Z,11.45
2023-03-18T21:59:15.137Z,11.68
2023-03-18T22:01:42.720Z,12.23
2023-03-18T22:04:10.685Z,11.70
2023-03-18T22:06:38.114Z,11.77
2023-03-18T22:09:05.868Z,13.02
2023-03-18T22:11:33.320Z,13.45
2023-03-18T22:14:00.740Z,14.10
2023-03-18T22:16:28.413Z,14.80
2023-03-18T22:18:56.101Z,15.00
2023-03-18T22:21:26.470Z,16.02
2023-03-18T22:23:54.874Z,18.63
2023-03-18T22:26:22.320Z,20.20
2023-03-18T22:28:50.689Z,20.15
2023-03-18T22:31:22.700Z,19.98
2023-03-18T22:33:51.009Z,22.08
2023-03-18T22:36:21.688Z,21.40
2023-03-18T22:38:49.371Z,22.08
2023-03-18T22:41:30.267Z,24.00
2023-03-18T22:44:00.068Z,22.00
2023-03-18T22:46:28.537Z,23.35
2023-03-18T22:48:59.205Z,23.52
2023-03-18T22:51:29.597Z,23.95
2023-03-18T22:53:57.190Z,22.65
2023-03-18T22:56:24.666Z,23.50
2023-03-18T22:58:52.321Z,22.70
2023-03-18T23:01:31.159Z,23.33
2023-03-18T23:03:58.906Z,23.98
2023-03-18T23:06:27.259Z,22.67
2023-03-18T23:08:54.823Z,22.77
2023-03-18T23:11:22.311Z,22.10
2023-03-18T23:13:50.718Z,23.88
2023-03-18T23:16:23.626Z,23.67
2023-03-18T23:18:51.735Z,24.95
2023-03-18T23:21:28.244Z,23.98
2023-03-18T23:23:56.600Z,24.05
2023-03-18T23:26:24.068Z,23.55
2023-03-18T23:28:51.730Z,23.45
2023-03-18T23:31:19.214Z,24.35
2023-03-18T23:33:47.250Z,24.27
2023-03-18T23:36:14.813Z,24.27
2023-03-18T23:38:42.537Z,23.02
2023-03-18T23:41:10.275Z,24.38
2023-03-18T23:43:37.752Z,22.42
2023-03-18T23:46:05.671Z,23.92
2023-03-18T23:48:33.177Z,23.33
2023-03-18T23:51:00.858Z,23.92
2023-03-18T23:53:28.331Z,23.98
2023-03-18T23:55:55.970Z,23.75
2023-03-18T23:58:23.433Z,23.00
